createdAt,value
2022-09-30T00:14:45.831Z,13.23
2022-09-30T00:24:52.832Z,12.68
2022-09-30T00:29:55.626Z,13.48
2022-09-30T00:34:58.475Z,14.23
2022-09-30T00:40:03.011Z,13.52
2022-09-30T00:45:08.152Z,15.50
2022-09-30T00:50:21.540Z,15.48
2022-09-30T00:55:37.065Z,14.07
2022-09-30T01:00:40.029Z,13.88
2022-09-30T01:05:43.738Z,14.48
2022-09-30T01:10:47.941Z,14.80
2022-09-30T01:16:24.810Z,12.30
2022-09-30T01:21:55.865Z,12.32
2022-09-30T01:27:11.600Z,12.02
2022-09-30T01:32:25.746Z,12.18
2022-09-30T01:37:40.209Z,13.32
2022-09-30T01:42:51.648Z,15.43
2022-09-30T01:48:01.600Z,13.90
2022-09-30T01:53:11.648Z,15.02
2022-09-30T01:58:20.351Z,14.00
2022-09-30T02:03:32.352Z,15.60
2022-09-30T02:08:42.403Z,13.67
2022-09-30T02:13:50.205Z,13.50
2022-09-30T02:18:58.312Z,12.18
2022-09-30T02:24:06.035Z,13.00
2022-09-30T02:29:14.981Z,13.25
2022-09-30T02:34:22.725Z,13.85
2022-09-30T02:39:35.217Z,14.50
2022-09-30T02:44:39.021Z,13.70
2022-09-30T02:49:49.380Z,15.00
2022-09-30T02:55:09.350Z,13.73
2022-09-30T03:00:13.473Z,12.82
2022-09-30T03:05:18.271Z,12.77
2022-09-30T03:10:21.075Z,11.38
2022-09-30T03:15:47.078Z,12.30
2022-09-30T03:21:07.107Z,13.35
2022-09-30T03:26:19.550Z,14.02
2022-09-30T03:31:31.714Z,14.98
2022-09-30T03:36:42.524Z,13.98
2022-09-30T03:41:51.359Z,14.73
2022-09-30T03:46:58.661Z,15.38
2022-09-30T03:52:07.090Z,15.48
2022-09-30T03:57:09.902Z,15.55
2022-09-30T04:02:13.607Z,15.52
2022-09-30T04:07:17.837Z,15.40
2022-09-30T04:12:20.666Z,18.58
2022-09-30T04:17:23.622Z,16.98
2022-09-30T04:22:27.791Z,17.15
2022-09-30T04:27:30.619Z,18.17
2022-09-30T04:32:33.528Z,19.02
2022-09-30T04:37:37.836Z,18.63
2022-09-30T04:42:42.944Z,18.17
2022-09-30T04:47:46.101Z,18.73
2022-09-30T04:52:50.245Z,21.15
2022-09-30T04:57:53.029Z,19.70
2022-09-30T05:02:55.813Z,17.92
2022-09-30T05:08:02.621Z,17.80
2022-09-30T05:13:05.393Z,18.90
2022-09-30T05:18:08.193Z,20.40
2022-09-30T05:23:12.336Z,20.13
2022-09-30T05:28:15.481Z,18.50
2022-09-30T05:33:18.282Z,18.05
2022-09-30T05:38:22.985Z,16.42
2022-09-30T05:43:26.146Z,16.02
2022-09-30T05:48:29.040Z,16.70
2022-09-30T05:53:33.597Z,18.02
2022-09-30T05:58:37.712Z,18.08
2022-09-30T06:03:40.857Z,19.67
2022-09-30T06:08:45.218Z,20.58
2022-09-30T06:13:49.179Z,18.15
2022-09-30T06:18:52.464Z,27.60
2022-09-30T06:23:56.726Z,11.82
2022-09-30T06:28:59.542Z,13.40
2022-09-30T06:34:02.585Z,14.65
2022-09-30T06:39:11.452Z,14.20
2022-09-30T06:44:16.261Z,16.30
2022-09-30T06:49:19.173Z,16.17
2022-09-30T06:54:23.863Z,17.00
2022-09-30T06:59:26.667Z,17.15
2022-09-30T07:09:34.531Z,14.45
2022-09-30T07:14:37.483Z,14.88
2022-09-30T07:19:40.309Z,14.50
2022-09-30T07:24:44.450Z,16.38
2022-09-30T07:40:15.166Z,13.43
2022-09-30T07:45:18.836Z,13.95
2022-09-30T07:50:21.723Z,12.80
2022-09-30T07:55:25.871Z,13.40
2022-09-30T08:00:42.092Z,10.52
2022-09-30T08:05:45.800Z,12.18
2022-09-30T08:10:49.952Z,11.05
2022-09-30T08:15:52.806Z,10.50
2022-09-30T08:20:55.672Z,11.35
2022-09-30T08:26:04.187Z,10.38
2022-09-30T08:31:08.048Z,9.77
2022-09-30T08:36:13.469Z,9.30
2022-09-30T08:41:32.096Z,9.23
2022-09-30T08:46:45.248Z,8.88
2022-09-30T08:51:49.581Z,9.40
2022-09-30T08:56:54.760Z,9.63
2022-09-30T09:02:05.036Z,10.77
2022-09-30T09:07:16.159Z,8.98
2022-09-30T09:12:33.504Z,9.07
2022-09-30T09:18:10.992Z,8.50
2022-09-30T09:23:15.140Z,9.05
2022-09-30T09:28:26.996Z,8.85
2022-09-30T09:33:32.072Z,9.50
2022-09-30T09:38:46.286Z,9.02
2022-09-30T09:44:01.090Z,8.70
2022-09-30T09:49:30.964Z,9.45
2022-09-30T09:54:38.648Z,9.73
2022-09-30T09:59:56.508Z,9.38
2022-09-30T10:05:03.900Z,8.55
2022-09-30T10:10:10.103Z,8.30
2022-09-30T10:15:23.720Z,9.05
2022-09-30T10:20:31.069Z,8.65
2022-09-30T10:25:33.821Z,8.40
2022-09-30T10:30:46.243Z,9.45
2022-09-30T10:36:12.694Z,8.20
2022-09-30T10:41:24.295Z,10.02
2022-09-30T10:46:32.331Z,8.83
2022-09-30T10:51:36.325Z,8.77
2022-09-30T10:56:45.865Z,9.23
2022-09-30T11:01:57.616Z,7.95
2022-09-30T11:07:14.453Z,8.23
2022-09-30T11:12:23.504Z,8.38
2022-09-30T11:17:34.724Z,6.65
2022-09-30T11:22:45.016Z,7.13
2022-09-30T11:27:59.409Z,7.57
2022-09-30T11:33:19.761Z,6.78
2022-09-30T11:38:41.225Z,6.80
2022-09-30T11:43:53.668Z,7.18
2022-09-30T11:54:28.005Z,6.47
2022-09-30T11:59:35.812Z,8.65
2022-09-30T12:04:44.144Z,8.35
2022-09-30T12:09:50.833Z,9.45
2022-09-30T12:14:58.891Z,7.28
2022-09-30T12:20:09.139Z,7.95
2022-09-30T12:25:16.204Z,8.13
2022-09-30T12:30:23.007Z,7.68
2022-09-30T12:35:59.117Z,8.02
2022-09-30T12:41:20.014Z,6.53
2022-09-30T12:46:40.551Z,5.68
2022-09-30T12:51:46.978Z,4.95
2022-09-30T12:56:56.048Z,5.30
2022-09-30T13:02:00.864Z,5.47
2022-09-30T13:07:18.903Z,5.13
2022-09-30T13:12:28.926Z,4.78
2022-09-30T13:17:32.412Z,4.50
2022-09-30T13:22:57.713Z,4.75
2022-09-30T13:28:29.853Z,4.07
2022-09-30T13:33:44.393Z,4.28
2022-09-30T13:39:08.161Z,4.00
2022-09-30T13:44:17.706Z,3.60
2022-09-30T13:49:24.834Z,4.07
2022-09-30T13:54:34.015Z,3.28
2022-09-30T13:59:51.158Z,2.70
2022-09-30T14:05:19.609Z,2.90
2022-09-30T14:10:40.178Z,3.38
2022-09-30T14:16:18.450Z,2.72
2022-09-30T14:21:35.114Z,3.00
2022-09-30T14:26:54.755Z,2.55
2022-09-30T14:31:59.873Z,2.72
2022-09-30T14:37:04.260Z,3.47
2022-09-30T14:42:17.628Z,3.15
2022-09-30T14:47:20.484Z,4.05
2022-09-30T14:52:38.301Z,5.05
2022-09-30T14:57:44.753Z,3.88
2022-09-30T15:02:47.761Z,3.03
2022-09-30T15:07:50.395Z,3.05
2022-09-30T15:12:56.083Z,3.33
2022-09-30T15:17:58.832Z,3.45
2022-09-30T15:23:04.431Z,2.90
2022-09-30T15:28:11.515Z,2.95
2022-09-30T15:33:19.261Z,2.75
2022-09-30T15:38:25.815Z,3.10
2022-09-30T15:43:36.655Z,2.97
2022-09-30T15:48:44.729Z,2.90
2022-09-30T15:53:49.983Z,2.72
2022-09-30T15:58:58.169Z,2.50
2022-09-30T16:04:03.969Z,3.08
2022-09-30T16:09:18.545Z,2.50
2022-09-30T16:14:26.873Z,2.75
2022-09-30T16:19:31.055Z,2.75
2022-09-30T16:24:50.033Z,3.13
2022-09-30T16:29:54.162Z,3.30
2022-09-30T16:34:58.346Z,3.20
2022-09-30T16:40:11.444Z,2.90
2022-09-30T16:45:16.773Z,3.60
2022-09-30T16:50:25.643Z,3.58
2022-09-30T16:55:28.927Z,4.15
2022-09-30T17:00:33.525Z,3.58
2022-09-30T17:05:36.305Z,4.38
2022-09-30T17:10:39.152Z,4.25
2022-09-30T17:21:21.013Z,4.68
2022-09-30T17:26:23.873Z,5.38
2022-09-30T17:31:26.653Z,5.40
2022-09-30T17:36:31.229Z,7.03
2022-09-30T17:41:52.425Z,7.70
2022-09-30T17:47:00.629Z,6.60
2022-09-30T17:52:05.401Z,9.90
2022-09-30T17:57:08.330Z,6.68
2022-09-30T18:02:12.771Z,6.50
2022-09-30T18:07:16.904Z,5.35
2022-09-30T18:12:19.671Z,10.10
2022-09-30T18:17:23.368Z,7.20
2022-09-30T18:22:27.516Z,4.10
2022-09-30T18:27:33.849Z,3.88
2022-09-30T18:32:36.649Z,4.20
2022-09-30T18:37:42.331Z,4.85
2022-09-30T18:42:45.530Z,6.32
2022-09-30T18:47:48.582Z,10.27
2022-09-30T18:52:53.656Z,8.43
2022-09-30T18:57:57.802Z,39.00
2022-09-30T19:03:00.548Z,7.85
2022-09-30T19:08:04.680Z,30.95
2022-09-30T19:13:07.463Z,13.70
2022-09-30T19:18:11.745Z,3.78
2022-09-30T19:23:16.302Z,3.15
2022-09-30T19:28:22.212Z,8.73
2022-09-30T19:33:27.274Z,9.95
2022-09-30T19:38:37.817Z,3.22
2022-09-30T19:43:41.218Z,2.70
2022-09-30T19:48:44.011Z,2.25
2022-09-30T19:54:01.787Z,2.90
2022-09-30T19:59:07.185Z,2.17
2022-09-30T20:04:10.677Z,2.50
2022-09-30T20:09:14.879Z,2.13
2022-09-30T20:14:35.085Z,1.63
2022-09-30T20:19:37.889Z,1.33
2022-09-30T20:24:42.045Z,1.23
2022-09-30T20:29:44.799Z,1.40
2022-09-30T20:34:47.533Z,1.60
2022-09-30T20:39:51.753Z,1.42
2022-09-30T20:44:56.060Z,1.52
2022-09-30T20:49:59.409Z,1.27
2022-09-30T20:55:05.946Z,1.70
2022-09-30T21:00:10.299Z,2.03
2022-09-30T21:05:13.093Z,1.65
2022-09-30T21:10:18.046Z,2.35
2022-09-30T21:15:20.841Z,2.10
2022-09-30T21:20:23.745Z,2.40
2022-09-30T21:25:27.953Z,2.05
2022-09-30T21:30:30.708Z,2.30
2022-09-30T21:35:33.847Z,2.13
2022-09-30T21:40:38.407Z,2.15
2022-09-30T21:45:42.124Z,1.90
2022-09-30T21:50:44.911Z,2.08
2022-09-30T21:55:49.780Z,2.20
2022-09-30T22:00:53.307Z,1.60
2022-09-30T22:05:57.521Z,2.25
2022-09-30T22:11:01.839Z,1.95
2022-09-30T22:16:07.713Z,2.25
2022-09-30T22:21:14.450Z,2.30
2022-09-30T22:26:21.369Z,2.10
2022-09-30T22:31:27.636Z,2.25
2022-09-30T22:36:47.861Z,1.65
2022-09-30T22:41:54.119Z,2.40
2022-09-30T22:46:59.499Z,2.33
2022-09-30T22:52:03.642Z,1.73
2022-09-30T22:57:09.714Z,2.30
2022-09-30T23:02:12.498Z,2.22
2022-09-30T23:12:19.208Z,2.17
2022-09-30T23:17:22.098Z,2.45
2022-09-30T23:22:24.850Z,2.83
2022-09-30T23:32:31.525Z,1.80
2022-09-30T23:42:38.199Z,3.05
2022-09-30T23:47:41.023Z,2.20
2022-09-30T23:57:48.527Z,2.63
